sensor_id;sensor_type;location;lat;lon;timestamp;P1;durP1;ratioP1;P2;durP2;ratioP2
37299;SDS011;23184;51.902;12.836;2022-08-19T00:00:33;25.30;;;17.92;;
37299;SDS011;23184;51.902;12.836;2022-08-19T00:02:59;24.27;;;16.90;;
37299;SDS011;23184;51.902;12.836;2022-08-19T00:05:25;23.63;;;17.48;;
37299;SDS011;23184;51.902;12.836;2022-08-19T00:07:51;16.90;;;15.10;;
37299;SDS011;23184;51.902;12.836;2022-08-19T00:10:17;22.95;;;16.67;;
37299;SDS011;23184;51.902;12.836;2022-08-19T00:12:43;21.63;;;15.98;;
37299;SDS011;23184;51.902;12.836;2022-08-19T00:15:10;18.65;;;15.50;;
37299;SDS011;23184;51.902;12.836;2022-08-19T00:17:40;18.40;;;15.77;;
37299;SDS011;23184;51.902;12.836;2022-08-19T00:20:10;16.40;;;14.40;;
37299;SDS011;23184;51.902;12.836;2022-08-19T00:22:38;22.85;;;14.95;;
37299;SDS011;23184;51.902;12.836;2022-08-19T00:25:06;20.83;;;15.75;;
37299;SDS011;23184;51.902;12.836;2022-08-19T00:27:32;26.20;;;15.98;;
37299;SDS011;23184;51.902;12.836;2022-08-19T00:29:58;26.27;;;17.17;;
37299;SDS011;23184;51.902;12.836;2022-08-19T00:32:24;17.83;;;15.60;;
37299;SDS011;23184;51.902;12.836;2022-08-19T00:34:50;19.77;;;16.40;;
37299;SDS011;23184;51.902;12.836;2022-08-19T00:37:19;22.17;;;15.52;;
37299;SDS011;23184;51.902;12.836;2022-08-19T00:39:49;15.20;;;13.25;;
37299;SDS011;23184;51.902;12.836;2022-08-19T00:42:16;18.23;;;13.43;;
37299;SDS011;23184;51.902;12.836;2022-08-19T00:44:42;15.38;;;13.65;;
37299;SDS011;23184;51.902;12.836;2022-08-19T00:47:08;19.73;;;15.35;;
37299;SDS011;23184;51.902;12.836;2022-08-19T00:49:47;17.60;;;14.05;;
37299;SDS011;23184;51.902;12.836;2022-08-19T00:52:35;16.35;;;12.77;;
37299;SDS011;23184;51.902;12.836;2022-08-19T00:55:05;18.42;;;13.63;;
37299;SDS011;23184;51.902;12.836;2022-08-19T00:57:36;17.75;;;14.32;;
37299;SDS011;23184;51.902;12.836;2022-08-19T01:00:09;15.20;;;11.40;;
37299;SDS011;23184;51.902;12.836;2022-08-19T01:02:37;14.38;;;12.40;;
37299;SDS011;23184;51.902;12.836;2022-08-19T01:05:05;14.65;;;12.27;;
37299;SDS011;23184;51.902;12.836;2022-08-19T01:07:34;16.13;;;12.63;;
37299;SDS011;23184;51.902;12.836;2022-08-19T01:10:03;15.80;;;12.75;;
37299;SDS011;23184;51.902;12.836;2022-08-19T01:12:30;19.23;;;13.25;;
37299;SDS011;23184;51.902;12.836;2022-08-19T01:14:56;19.02;;;14.02;;
37299;SDS011;23184;51.902;12.836;2022-08-19T01:17:22;18.63;;;15.35;;
37299;SDS011;23184;51.902;12.836;2022-08-19T01:19:48;14.82;;;13.25;;
37299;SDS011;23184;51.902;12.836;2022-08-19T01:22:19;17.85;;;13.23;;
37299;SDS011;23184;51.902;12.836;2022-08-19T01:24:46;15.45;;;12.85;;
37299;SDS011;23184;51.902;12.836;2022-08-19T01:27:12;18.60;;;13.88;;
37299;SDS011;23184;51.902;12.836;2022-08-19T01:29:38;17.65;;;13.70;;
37299;SDS011;23184;51.902;12.836;2022-08-19T01:32:05;16.05;;;11.27;;
37299;SDS011;23184;51.902;12.836;2022-08-19T01:34:33;13.70;;;8.95;;
37299;SDS011;23184;51.902;12.836;2022-08-19T01:36:59;16.23;;;9.52;;
37299;SDS011;23184;51.902;12.836;2022-08-19T01:39:27;19.92;;;11.55;;
37299;SDS011;23184;51.902;12.836;2022-08-19T01:41:53;23.48;;;12.18;;
37299;SDS011;23184;51.902;12.836;2022-08-19T01:44:19;21.92;;;14.90;;
37299;SDS011;23184;51.902;12.836;2022-08-19T01:49:49;21.15;;;15.40;;
37299;SDS011;23184;51.902;12.836;2022-08-19T01:52:15;20.67;;;16.15;;
37299;SDS011;23184;51.902;12.836;2022-08-19T01:54:40;18.38;;;15.48;;
37299;SDS011;23184;51.902;12.836;2022-08-19T01:57:07;14.95;;;12.02;;
37299;SDS011;23184;51.902;12.836;2022-08-19T01:59:36;13.82;;;12.35;;
37299;SDS011;23184;51.902;12.836;2022-08-19T02:02:02;14.73;;;13.23;;
37299;SDS011;23184;51.902;12.836;2022-08-19T02:04:32;17.20;;;14.00;;
37299;SDS011;23184;51.902;12.836;2022-08-19T02:06:59;18.45;;;13.55;;
37299;SDS011;23184;51.902;12.836;2022-08-19T02:09:24;15.68;;;13.95;;
37299;SDS011;23184;51.902;12.836;2022-08-19T02:11:50;16.20;;;13.90;;
37299;SDS011;23184;51.902;12.836;2022-08-19T02:14:15;17.10;;;15.07;;
37299;SDS011;23184;51.902;12.836;2022-08-19T02:16:41;16.05;;;14.35;;
37299;SDS011;23184;51.902;12.836;2022-08-19T02:19:06;15.55;;;14.02;;
37299;SDS011;23184;51.902;12.836;2022-08-19T02:21:33;15.65;;;13.38;;
37299;SDS011;23184;51.902;12.836;2022-08-19T02:23:59;15.68;;;13.98;;
37299;SDS011;23184;51.902;12.836;2022-08-19T02:26:25;19.98;;;14.93;;
37299;SDS011;23184;51.902;12.836;2022-08-19T02:28:52;18.73;;;15.55;;
37299;SDS011;23184;51.902;12.836;2022-08-19T02:31:19;19.40;;;14.75;;
37299;SDS011;23184;51.902;12.836;2022-08-19T02:33:46;18.27;;;15.52;;
37299;SDS011;23184;51.902;12.836;2022-08-19T02:36:13;19.58;;;15.23;;
37299;SDS011;23184;51.902;12.836;2022-08-19T02:38:40;16.77;;;14.98;;
37299;SDS011;23184;51.902;12.836;2022-08-19T02:41:12;17.25;;;15.43;;
37299;SDS011;23184;51.902;12.836;2022-08-19T02:43:40;18.42;;;16.50;;
37299;SDS011;23184;51.902;12.836;2022-08-19T02:46:16;18.90;;;14.95;;
37299;SDS011;23184;51.902;12.836;2022-08-19T02:48:46;16.98;;;15.05;;
37299;SDS011;23184;51.902;12.836;2022-08-19T02:51:17;20.52;;;17.23;;
37299;SDS011;23184;51.902;12.836;2022-08-19T02:53:51;21.95;;;16.42;;
37299;SDS011;23184;51.902;12.836;2022-08-19T02:56:17;18.38;;;15.65;;
37299;SDS011;23184;51.902;12.836;2022-08-19T02:58:44;18.13;;;15.82;;
37299;SDS011;23184;51.902;12.836;2022-08-19T03:01:10;18.38;;;16.10;;
37299;SDS011;23184;51.902;12.836;2022-08-19T03:03:43;18.33;;;16.10;;
37299;SDS011;23184;51.902;12.836;2022-08-19T03:06:11;19.83;;;16.15;;
37299;SDS011;23184;51.902;12.836;2022-08-19T03:08:40;16.30;;;14.60;;
37299;SDS011;23184;51.902;12.836;2022-08-19T03:11:16;18.05;;;16.15;;
37299;SDS011;23184;51.902;12.836;2022-08-19T03:13:47;19.90;;;15.90;;
37299;SDS011;23184;51.902;12.836;2022-08-19T03:16:14;20.67;;;15.85;;
37299;SDS011;23184;51.902;12.836;2022-08-19T03:18:41;16.73;;;15.02;;
37299;SDS011;23184;51.902;12.836;2022-08-19T03:21:06;19.70;;;16.50;;
37299;SDS011;23184;51.902;12.836;2022-08-19T03:23:33;18.00;;;16.10;;
37299;SDS011;23184;51.902;12.836;2022-08-19T03:26:01;18.13;;;16.23;;
37299;SDS011;23184;51.902;12.836;2022-08-19T03:28:29;16.10;;;14.35;;
37299;SDS011;23184;51.902;12.836;2022-08-19T03:31:05;16.88;;;15.13;;
37299;SDS011;23184;51.902;12.836;2022-08-19T03:33:34;18.75;;;16.63;;
37299;SDS011;23184;51.902;12.836;2022-08-19T03:36:11;17.27;;;15.32;;
37299;SDS011;23184;51.902;12.836;2022-08-19T03:38:43;15.60;;;14.00;;
37299;SDS011;23184;51.902;12.836;2022-08-19T03:41:13;17.77;;;13.63;;
37299;SDS011;23184;51.902;12.836;2022-08-19T03:43:41;17.63;;;15.55;;
37299;SDS011;23184;51.902;12.836;2022-08-19T03:46:11;16.25;;;14.40;;
37299;SDS011;23184;51.902;12.836;2022-08-19T03:48:40;16.17;;;14.68;;
37299;SDS011;23184;51.902;12.836;2022-08-19T03:51:07;18.25;;;16.35;;
37299;SDS011;23184;51.902;12.836;2022-08-19T03:53:39;16.70;;;15.10;;
37299;SDS011;23184;51.902;12.836;2022-08-19T03:56:05;17.45;;;15.25;;
37299;SDS011;23184;51.902;12.836;2022-08-19T03:58:33;16.23;;;14.63;;
37299;SDS011;23184;51.902;12.836;2022-08-19T04:00:59;15.77;;;14.13;;
37299;SDS011;23184;51.902;12.836;2022-08-19T04:03:24;19.70;;;15.32;;
37299;SDS011;23184;51.902;12.836;2022-08-19T04:05:51;19.40;;;15.68;;
37299;SDS011;23184;51.902;12.836;2022-08-19T04:08:18;15.30;;;12.93;;
37299;SDS011;23184;51.902;12.836;2022-08-19T04:10:45;14.43;;;12.93;;
37299;SDS011;23184;51.902;12.836;2022-08-19T04:13:11;16.30;;;13.85;;
37299;SDS011;23184;51.902;12.836;2022-08-19T04:15:41;16.88;;;15.07;;
37299;SDS011;23184;51.902;12.836;2022-08-19T04:18:10;16.48;;;14.80;;
37299;SDS011;23184;51.902;12.836;2022-08-19T04:20:40;15.32;;;13.73;;
37299;SDS011;23184;51.902;12.836;2022-08-19T04:23:07;16.40;;;14.77;;
37299;SDS011;23184;51.902;12.836;2022-08-19T04:25:36;16.50;;;14.02;;
37299;SDS011;23184;51.902;12.836;2022-08-19T04:28:04;17.30;;;15.52;;
37299;SDS011;23184;51.902;12.836;2022-08-19T04:30:29;19.23;;;16.02;;
37299;SDS011;23184;51.902;12.836;2022-08-19T04:32:55;20.75;;;18.05;;
37299;SDS011;23184;51.902;12.836;2022-08-19T04:35:20;22.83;;;19.65;;
37299;SDS011;23184;51.902;12.836;2022-08-19T04:37:46;23.30;;;20.88;;
37299;SDS011;23184;51.902;12.836;2022-08-19T04:40:11;25.52;;;22.52;;
37299;SDS011;23184;51.902;12.836;2022-08-19T04:42:55;26.40;;;22.23;;
37299;SDS011;23184;51.902;12.836;2022-08-19T04:45:21;28.23;;;22.63;;
37299;SDS011;23184;51.902;12.836;2022-08-19T04:47:47;26.17;;;23.00;;
37299;SDS011;23184;51.902;12.836;2022-08-19T04:50:12;24.33;;;21.75;;
37299;SDS011;23184;51.902;12.836;2022-08-19T04:52:39;24.25;;;21.65;;
37299;SDS011;23184;51.902;12.836;2022-08-19T04:55:09;27.08;;;23.80;;
37299;SDS011;23184;51.902;12.836;2022-08-19T04:57:36;24.92;;;22.35;;
37299;SDS011;23184;51.902;12.836;2022-08-19T05:00:05;26.85;;;23.95;;
37299;SDS011;23184;51.902;12.836;2022-08-19T05:02:32;28.15;;;25.10;;
37299;SDS011;23184;51.902;12.836;2022-08-19T05:04:58;26.98;;;24.23;;
37299;SDS011;23184;51.902;12.836;2022-08-19T05:07:25;27.42;;;23.98;;
37299;SDS011;23184;51.902;12.836;2022-08-19T05:09:51;27.63;;;23.35;;
37299;SDS011;23184;51.902;12.836;2022-08-19T05:12:17;34.60;;;24.25;;
37299;SDS011;23184;51.902;12.836;2022-08-19T05:14:44;25.05;;;22.55;;
37299;SDS011;23184;51.902;12.836;2022-08-19T05:17:11;22.73;;;20.45;;
37299;SDS011;23184;51.902;12.836;2022-08-19T05:19:37;24.98;;;20.75;;
37299;SDS011;23184;51.902;12.836;2022-08-19T05:22:22;20.63;;;18.40;;
37299;SDS011;23184;51.902;12.836;2022-08-19T05:24:57;19.83;;;17.90;;
37299;SDS011;23184;51.902;12.836;2022-08-19T05:27:22;18.60;;;16.60;;
37299;SDS011;23184;51.902;12.836;2022-08-19T05:29:48;18.10;;;16.17;;
37299;SDS011;23184;51.902;12.836;2022-08-19T05:32:13;17.60;;;15.65;;
37299;SDS011;23184;51.902;12.836;2022-08-19T05:34:39;17.20;;;15.50;;
37299;SDS011;23184;51.902;12.836;2022-08-19T05:37:05;20.35;;;15.32;;
37299;SDS011;23184;51.902;12.836;2022-08-19T05:39:33;17.00;;;14.15;;
37299;SDS011;23184;51.902;12.836;2022-08-19T05:42:04;14.35;;;12.95;;
37299;SDS011;23184;51.902;12.836;2022-08-19T05:44:35;13.65;;;12.25;;
37299;SDS011;23184;51.902;12.836;2022-08-19T05:47:05;12.52;;;11.32;;
37299;SDS011;23184;51.902;12.836;2022-08-19T05:49:33;12.23;;;10.93;;
37299;SDS011;23184;51.902;12.836;2022-08-19T05:52:02;11.43;;;10.35;;
37299;SDS011;23184;51.902;12.836;2022-08-19T05:54:29;11.27;;;10.02;;
37299;SDS011;23184;51.902;12.836;2022-08-19T05:56:55;12.00;;;10.70;;
37299;SDS011;23184;51.902;12.836;2022-08-19T05:59:21;12.45;;;11.02;;
37299;SDS011;23184;51.902;12.836;2022-08-19T06:01:48;12.30;;;10.80;;
37299;SDS011;23184;51.902;12.836;2022-08-19T06:04:20;11.50;;;10.38;;
37299;SDS011;23184;51.902;12.836;2022-08-19T06:06:47;12.65;;;11.32;;
37299;SDS011;23184;51.902;12.836;2022-08-19T06:09:14;12.38;;;11.13;;
37299;SDS011;23184;51.902;12.836;2022-08-19T06:11:50;14.20;;;11.63;;
37299;SDS011;23184;51.902;12.836;2022-08-19T06:14:19;12.90;;;11.70;;
37299;SDS011;23184;51.902;12.836;2022-08-19T06:16:47;13.75;;;11.95;;
37299;SDS011;23184;51.902;12.836;2022-08-19T06:19:15;14.57;;;13.18;;
37299;SDS011;23184;51.902;12.836;2022-08-19T06:21:43;12.93;;;11.63;;
37299;SDS011;23184;51.902;12.836;2022-08-19T06:24:13;16.52;;;12.88;;
37299;SDS011;23184;51.902;12.836;2022-08-19T06:26:42;14.23;;;12.52;;
37299;SDS011;23184;51.902;12.836;2022-08-19T06:29:10;14.75;;;12.38;;
37299;SDS011;23184;51.902;12.836;2022-08-19T06:31:36;16.25;;;14.05;;
37299;SDS011;23184;51.902;12.836;2022-08-19T06:34:04;14.45;;;12.90;;
37299;SDS011;23184;51.902;12.836;2022-08-19T06:36:34;14.10;;;12.70;;
37299;SDS011;23184;51.902;12.836;2022-08-19T06:39:05;14.38;;;12.48;;
37299;SDS011;23184;51.902;12.836;2022-08-19T06:41:34;12.63;;;11.32;;
37299;SDS011;23184;51.902;12.836;2022-08-19T06:44:01;13.43;;;12.02;;
37299;SDS011;23184;51.902;12.836;2022-08-19T06:46:27;11.80;;;10.60;;
37299;SDS011;23184;51.902;12.836;2022-08-19T06:48:53;12.23;;;10.48;;
37299;SDS011;23184;51.902;12.836;2022-08-19T06:51:19;10.90;;;9.77;;
37299;SDS011;23184;51.902;12.836;2022-08-19T06:53:47;12.20;;;10.48;;
37299;SDS011;23184;51.902;12.836;2022-08-19T06:56:14;11.88;;;10.68;;
37299;SDS011;23184;51.902;12.836;2022-08-19T06:58:42;14.13;;;10.65;;
37299;SDS011;23184;51.902;12.836;2022-08-19T07:01:07;13.73;;;12.52;;
37299;SDS011;23184;51.902;12.836;2022-08-19T07:03:34;13.65;;;11.95;;
37299;SDS011;23184;51.902;12.836;2022-08-19T07:06:05;13.13;;;11.55;;
37299;SDS011;23184;51.902;12.836;2022-08-19T07:08:32;13.02;;;11.73;;
37299;SDS011;23184;51.902;12.836;2022-08-19T07:10:58;16.92;;;14.93;;
37299;SDS011;23184;51.902;12.836;2022-08-19T07:13:24;18.98;;;16.48;;
37299;SDS011;23184;51.902;12.836;2022-08-19T07:15:50;20.90;;;18.00;;
37299;SDS011;23184;51.902;12.836;2022-08-19T07:18:17;21.38;;;18.20;;
37299;SDS011;23184;51.902;12.836;2022-08-19T07:20:44;25.13;;;18.75;;
37299;SDS011;23184;51.902;12.836;2022-08-19T07:23:10;22.35;;;19.85;;
37299;SDS011;23184;51.902;12.836;2022-08-19T07:25:36;24.67;;;20.50;;
37299;SDS011;23184;51.902;12.836;2022-08-19T07:28:02;22.83;;;19.73;;
37299;SDS011;23184;51.902;12.836;2022-08-19T07:30:29;22.45;;;19.25;;
37299;SDS011;23184;51.902;12.836;2022-08-19T07:32:55;21.05;;;17.52;;
37299;SDS011;23184;51.902;12.836;2022-08-19T07:35:21;20.40;;;18.13;;
37299;SDS011;23184;51.902;12.836;2022-08-19T07:37:47;22.88;;;20.48;;
37299;SDS011;23184;51.902;12.836;2022-08-19T07:40:12;20.25;;;18.13;;
37299;SDS011;23184;51.902;12.836;2022-08-19T07:42:38;21.35;;;19.05;;
37299;SDS011;23184;51.902;12.836;2022-08-19T07:45:04;20.40;;;18.25;;
37299;SDS011;23184;51.902;12.836;2022-08-19T07:47:31;23.20;;;17.85;;
37299;SDS011;23184;51.902;12.836;2022-08-19T07:49:57;20.27;;;18.15;;
37299;SDS011;23184;51.902;12.836;2022-08-19T07:52:23;22.48;;;20.00;;
37299;SDS011;23184;51.902;12.836;2022-08-19T07:54:48;22.65;;;20.08;;
37299;SDS011;23184;51.902;12.836;2022-08-19T07:57:14;21.52;;;19.33;;
37299;SDS011;23184;51.902;12.836;2022-08-19T07:59:40;20.27;;;18.05;;
37299;SDS011;23184;51.902;12.836;2022-08-19T08:02:06;22.35;;;18.90;;
37299;SDS011;23184;51.902;12.836;2022-08-19T08:04:33;21.50;;;19.30;;
37299;SDS011;23184;51.902;12.836;2022-08-19T08:07:18;22.15;;;19.52;;
37299;SDS011;23184;51.902;12.836;2022-08-19T08:10:03;22.42;;;18.38;;
37299;SDS011;23184;51.902;12.836;2022-08-19T08:12:32;22.90;;;19.90;;
37299;SDS011;23184;51.902;12.836;2022-08-19T08:15:02;22.20;;;19.80;;
37299;SDS011;23184;51.902;12.836;2022-08-19T08:17:31;22.15;;;19.85;;
37299;SDS011;23184;51.902;12.836;2022-08-19T08:19:56;26.33;;;23.52;;
37299;SDS011;23184;51.902;12.836;2022-08-19T08:22:23;24.45;;;19.60;;
37299;SDS011;23184;51.902;12.836;2022-08-19T08:25:13;23.00;;;20.60;;
37299;SDS011;23184;51.902;12.836;2022-08-19T08:27:42;24.73;;;22.13;;
37299;SDS011;23184;51.902;12.836;2022-08-19T08:30:10;22.23;;;19.92;;
37299;SDS011;23184;51.902;12.836;2022-08-19T08:32:44;27.13;;;24.33;;
37299;SDS011;23184;51.902;12.836;2022-08-19T08:35:11;27.33;;;24.10;;
37299;SDS011;23184;51.902;12.836;2022-08-19T08:37:39;27.08;;;24.17;;
37299;SDS011;23184;51.902;12.836;2022-08-19T08:40:05;26.55;;;23.73;;
37299;SDS011;23184;51.902;12.836;2022-08-19T08:42:38;29.02;;;24.02;;
37299;SDS011;23184;51.902;12.836;2022-08-19T08:45:14;25.90;;;22.73;;
37299;SDS011;23184;51.902;12.836;2022-08-19T08:47:43;27.17;;;21.88;;
37299;SDS011;23184;51.902;12.836;2022-08-19T08:50:24;27.67;;;23.00;;
37299;SDS011;23184;51.902;12.836;2022-08-19T08:52:56;32.45;;;27.65;;
37299;SDS011;23184;51.902;12.836;2022-08-19T08:55:27;28.60;;;24.65;;
37299;SDS011;23184;51.902;12.836;2022-08-19T08:58:09;29.55;;;26.02;;
37299;SDS011;23184;51.902;12.836;2022-08-19T09:00:43;26.20;;;23.13;;
37299;SDS011;23184;51.902;12.836;2022-08-19T09:03:21;24.83;;;22.20;;
37299;SDS011;23184;51.902;12.836;2022-08-19T09:06:03;31.23;;;27.58;;
37299;SDS011;23184;51.902;12.836;2022-08-19T09:11:44;30.42;;;25.75;;
37299;SDS011;23184;51.902;12.836;2022-08-19T09:19:14;29.75;;;25.73;;
37299;SDS011;23184;51.902;12.836;2022-08-19T09:21:42;31.92;;;27.02;;
37299;SDS011;23184;51.902;12.836;2022-08-19T09:24:07;32.50;;;27.98;;
37299;SDS011;23184;51.902;12.836;2022-08-19T09:26:33;34.22;;;29.08;;
37299;SDS011;23184;51.902;12.836;2022-08-19T09:28:59;34.97;;;29.83;;
37299;SDS011;23184;51.902;12.836;2022-08-19T09:31:27;35.42;;;28.88;;
37299;SDS011;23184;51.902;12.836;2022-08-19T09:33:54;29.13;;;24.33;;
37299;SDS011;23184;51.902;12.836;2022-08-19T09:36:22;31.85;;;27.52;;
37299;SDS011;23184;51.902;12.836;2022-08-19T09:38:50;32.15;;;26.27;;
37299;SDS011;23184;51.902;12.836;2022-08-19T09:41:18;32.40;;;26.90;;
37299;SDS011;23184;51.902;12.836;2022-08-19T09:43:46;27.85;;;24.63;;
37299;SDS011;23184;51.902;12.836;2022-08-19T09:46:16;28.48;;;22.67;;
37299;SDS011;23184;51.902;12.836;2022-08-19T09:48:43;29.85;;;24.98;;
37299;SDS011;23184;51.902;12.836;2022-08-19T09:51:10;32.38;;;26.88;;
37299;SDS011;23184;51.902;12.836;2022-08-19T09:53:39;32.28;;;27.60;;
37299;SDS011;23184;51.902;12.836;2022-08-19T09:56:05;32.00;;;27.08;;
37299;SDS011;23184;51.902;12.836;2022-08-19T09:58:32;28.95;;;25.10;;
37299;SDS011;23184;51.902;12.836;2022-08-19T10:00:58;28.50;;;24.42;;
37299;SDS011;23184;51.902;12.836;2022-08-19T10:03:25;26.02;;;22.92;;
37299;SDS011;23184;51.902;12.836;2022-08-19T10:05:52;31.75;;;24.92;;
37299;SDS011;23184;51.902;12.836;2022-08-19T10:08:19;26.38;;;23.40;;
37299;SDS011;23184;51.902;12.836;2022-08-19T10:10:50;22.75;;;20.15;;
37299;SDS011;23184;51.902;12.836;2022-08-19T10:13:18;25.27;;;20.02;;
37299;SDS011;23184;51.902;12.836;2022-08-19T10:15:50;29.00;;;24.53;;
37299;SDS011;23184;51.902;12.836;2022-08-19T10:18:21;29.15;;;24.70;;
37299;SDS011;23184;51.902;12.836;2022-08-19T10:20:48;24.35;;;21.45;;
37299;SDS011;23184;51.902;12.836;2022-08-19T10:23:16;26.95;;;22.67;;
37299;SDS011;23184;51.902;12.836;2022-08-19T10:25:42;25.98;;;22.55;;
37299;SDS011;23184;51.902;12.836;2022-08-19T10:28:08;30.75;;;23.77;;
37299;SDS011;23184;51.902;12.836;2022-08-19T10:30:36;27.55;;;23.48;;
37299;SDS011;23184;51.902;12.836;2022-08-19T10:33:02;29.27;;;24.42;;
37299;SDS011;23184;51.902;12.836;2022-08-19T10:35:27;26.27;;;22.15;;
37299;SDS011;23184;51.902;12.836;2022-08-19T10:37:54;30.80;;;22.80;;
37299;SDS011;23184;51.902;12.836;2022-08-19T10:40:24;28.52;;;22.52;;
37299;SDS011;23184;51.902;12.836;2022-08-19T10:42:50;25.25;;;20.98;;
37299;SDS011;23184;51.902;12.836;2022-08-19T10:45:16;28.17;;;22.73;;
37299;SDS011;23184;51.902;12.836;2022-08-19T10:47:41;29.90;;;24.45;;
37299;SDS011;23184;51.902;12.836;2022-08-19T10:50:07;33.35;;;25.65;;
37299;SDS011;23184;51.902;12.836;2022-08-19T10:52:51;29.20;;;24.35;;
37299;SDS011;23184;51.902;12.836;2022-08-19T10:55:18;32.33;;;22.35;;
37299;SDS011;23184;51.902;12.836;2022-08-19T10:58:09;25.55;;;22.70;;
37299;SDS011;23184;51.902;12.836;2022-08-19T11:00:39;26.30;;;20.98;;
37299;SDS011;23184;51.902;12.836;2022-08-19T11:03:05;26.65;;;20.52;;
37299;SDS011;23184;51.902;12.836;2022-08-19T11:05:30;28.83;;;22.92;;
37299;SDS011;23184;51.902;12.836;2022-08-19T11:07:56;26.85;;;22.58;;
37299;SDS011;23184;51.902;12.836;2022-08-19T11:10:21;28.50;;;22.65;;
37299;SDS011;23184;51.902;12.836;2022-08-19T11:12:48;29.90;;;23.75;;
37299;SDS011;23184;51.902;12.836;2022-08-19T11:15:17;28.77;;;22.13;;
37299;SDS011;23184;51.902;12.836;2022-08-19T11:17:43;26.70;;;20.88;;
37299;SDS011;23184;51.902;12.836;2022-08-19T11:20:12;29.60;;;23.38;;
37299;SDS011;23184;51.902;12.836;2022-08-19T11:22:39;29.30;;;24.10;;
37299;SDS011;23184;51.902;12.836;2022-08-19T11:25:05;26.02;;;22.13;;
37299;SDS011;23184;51.902;12.836;2022-08-19T11:27:31;27.50;;;22.60;;
37299;SDS011;23184;51.902;12.836;2022-08-19T11:29:57;30.45;;;26.70;;
37299;SDS011;23184;51.902;12.836;2022-08-19T11:32:22;26.05;;;22.92;;
37299;SDS011;23184;51.902;12.836;2022-08-19T11:34:48;31.38;;;23.70;;
37299;SDS011;23184;51.902;12.836;2022-08-19T11:37:13;33.47;;;26.02;;
37299;SDS011;23184;51.902;12.836;2022-08-19T11:39:39;35.10;;;28.02;;
37299;SDS011;23184;51.902;12.836;2022-08-19T11:42:05;31.80;;;23.75;;
37299;SDS011;23184;51.902;12.836;2022-08-19T11:44:51;37.40;;;27.60;;
37299;SDS011;23184;51.902;12.836;2022-08-19T11:47:18;35.30;;;27.92;;
37299;SDS011;23184;51.902;12.836;2022-08-19T11:49:45;36.65;;;29.02;;
37299;SDS011;23184;51.902;12.836;2022-08-19T11:52:11;32.40;;;26.25;;
37299;SDS011;23184;51.902;12.836;2022-08-19T11:54:37;31.55;;;27.23;;
37299;SDS011;23184;51.902;12.836;2022-08-19T11:57:03;37.38;;;28.33;;
37299;SDS011;23184;51.902;12.836;2022-08-19T11:59:29;37.03;;;29.45;;
37299;SDS011;23184;51.902;12.836;2022-08-19T12:01:55;33.38;;;26.45;;
37299;SDS011;23184;51.902;12.836;2022-08-19T12:04:21;31.98;;;26.23;;
37299;SDS011;23184;51.902;12.836;2022-08-19T12:06:48;31.65;;;26.88;;
37299;SDS011;23184;51.902;12.836;2022-08-19T12:09:15;31.58;;;26.95;;
37299;SDS011;23184;51.902;12.836;2022-08-19T12:11:42;30.50;;;25.45;;
37299;SDS011;23184;51.902;12.836;2022-08-19T12:14:09;27.88;;;22.95;;
37299;SDS011;23184;51.902;12.836;2022-08-19T12:16:36;34.20;;;26.58;;
37299;SDS011;23184;51.902;12.836;2022-08-19T12:19:03;27.52;;;23.90;;
37299;SDS011;23184;51.902;12.836;2022-08-19T12:21:29;31.70;;;25.15;;
37299;SDS011;23184;51.902;12.836;2022-08-19T12:23:57;28.90;;;24.08;;
37299;SDS011;23184;51.902;12.836;2022-08-19T12:26:25;30.20;;;23.95;;
37299;SDS011;23184;51.902;12.836;2022-08-19T12:28:52;34.60;;;25.13;;
37299;SDS011;23184;51.902;12.836;2022-08-19T12:31:18;29.40;;;23.27;;
37299;SDS011;23184;51.902;12.836;2022-08-19T12:33:44;27.83;;;23.48;;
37299;SDS011;23184;51.902;12.836;2022-08-19T12:36:11;27.75;;;22.85;;
37299;SDS011;23184;51.902;12.836;2022-08-19T12:38:37;25.45;;;22.58;;
37299;SDS011;23184;51.902;12.836;2022-08-19T12:41:04;25.25;;;20.90;;
37299;SDS011;23184;51.902;12.836;2022-08-19T12:43:31;24.77;;;22.10;;
37299;SDS011;23184;51.902;12.836;2022-08-19T12:45:57;24.92;;;21.20;;
37299;SDS011;23184;51.902;12.836;2022-08-19T12:48:23;24.50;;;20.73;;
37299;SDS011;23184;51.902;12.836;2022-08-19T12:50:48;22.90;;;20.30;;
37299;SDS011;23184;51.902;12.836;2022-08-19T12:53:14;22.00;;;18.45;;
37299;SDS011;23184;51.902;12.836;2022-08-19T12:55:40;22.13;;;19.20;;
37299;SDS011;23184;51.902;12.836;2022-08-19T12:58:07;25.02;;;20.90;;
37299;SDS011;23184;51.902;12.836;2022-08-19T13:00:33;20.65;;;17.20;;
37299;SDS011;23184;51.902;12.836;2022-08-19T13:02:59;18.60;;;16.70;;
37299;SDS011;23184;51.902;12.836;2022-08-19T13:05:26;20.73;;;18.55;;
37299;SDS011;23184;51.902;12.836;2022-08-19T13:07:54;22.05;;;18.63;;
37299;SDS011;23184;51.902;12.836;2022-08-19T13:10:21;19.67;;;17.10;;
37299;SDS011;23184;51.902;12.836;2022-08-19T13:12:48;17.92;;;16.02;;
37299;SDS011;23184;51.902;12.836;2022-08-19T13:15:15;21.45;;;18.55;;
37299;SDS011;23184;51.902;12.836;2022-08-19T13:17:46;17.27;;;15.43;;
37299;SDS011;23184;51.902;12.836;2022-08-19T13:20:13;20.63;;;18.50;;
37299;SDS011;23184;51.902;12.836;2022-08-19T13:22:41;19.42;;;16.63;;
37299;SDS011;23184;51.902;12.836;2022-08-19T13:25:07;19.08;;;16.33;;
37299;SDS011;23184;51.902;12.836;2022-08-19T13:27:33;20.40;;;17.98;;
37299;SDS011;23184;51.902;12.836;2022-08-19T13:30:00;20.77;;;17.50;;
37299;SDS011;23184;51.902;12.836;2022-08-19T13:32:45;18.90;;;16.85;;
37299;SDS011;23184;51.902;12.836;2022-08-19T13:35:29;18.13;;;16.20;;
37299;SDS011;23184;51.902;12.836;2022-08-19T13:37:55;16.95;;;14.43;;
37299;SDS011;23184;51.902;12.836;2022-08-19T13:40:22;18.38;;;16.52;;
37299;SDS011;23184;51.902;12.836;2022-08-19T13:42:51;19.90;;;14.35;;
37299;SDS011;23184;51.902;12.836;2022-08-19T13:45:19;21.05;;;18.55;;
37299;SDS011;23184;51.902;12.836;2022-08-19T13:47:47;23.48;;;20.90;;
37299;SDS011;23184;51.902;12.836;2022-08-19T13:50:15;19.55;;;17.45;;
37299;SDS011;23184;51.902;12.836;2022-08-19T13:52:43;22.95;;;20.55;;
37299;SDS011;23184;51.902;12.836;2022-08-19T13:55:09;20.48;;;17.65;;
37299;SDS011;23184;51.902;12.836;2022-08-19T13:57:36;24.50;;;20.35;;
37299;SDS011;23184;51.902;12.836;2022-08-19T14:00:07;22.23;;;17.75;;
37299;SDS011;23184;51.902;12.836;2022-08-19T14:02:40;22.92;;;18.95;;
37299;SDS011;23184;51.902;12.836;2022-08-19T14:05:06;22.35;;;18.23;;
37299;SDS011;23184;51.902;12.836;2022-08-19T14:07:34;26.90;;;20.98;;
37299;SDS011;23184;51.902;12.836;2022-08-19T14:10:00;22.17;;;18.15;;
37299;SDS011;23184;51.902;12.836;2022-08-19T14:12:27;22.63;;;18.67;;
37299;SDS011;23184;51.902;12.836;2022-08-19T14:14:53;24.95;;;22.15;;
37299;SDS011;23184;51.902;12.836;2022-08-19T14:17:18;26.10;;;21.15;;
37299;SDS011;23184;51.902;12.836;2022-08-19T14:19:44;27.38;;;21.58;;
37299;SDS011;23184;51.902;12.836;2022-08-19T14:22:09;27.35;;;21.67;;
37299;SDS011;23184;51.902;12.836;2022-08-19T14:24:36;30.20;;;23.52;;